GMMZ

Ouarzazate Airport

Ouarzazate, Morocco
METAR GMMZ 201400Z 12008KT 080V200 6000 FEW040 40/M05 Q1018 NOSIG
Observed Flight Rules
Jul-20 @ 14:00 UTC (40 minutes ago) Marginal Visual Flight Rules
Wind Visibility Clouds
120° at 8 knots 6,003 meters
  • Few at 4,000' AGL
Temperatures Readings
Current 40°C / 104°F
Dewpoint -5°C / 23°F
Humidity 6%
Altimeter 30.06" Hg
Pressure 1018 hPa
Elevation 1140
METAR GMMZ 201400Z 12008KT 080V200 6000 FEW040 40/M05 Q1018 NOSIG
Observed Flight Rules
Jul-20 @ 14:00 UTC
(40 minutes ago)
MVFR
Wind Visibility
120° at 8 knots 6,003 meters
Clouds
  • Few at 4,000' AGL
Temperature Dewpoint
40°C / 104°F -5°C / 23°F
Humidity Altimeter Pressure
6% 30.06" Hg 1018 hPa